sensor_id;sensor_type;location;lat;lon;timestamp;pressure;altitude;pressure_sealevel;temperature;humidity
71996;BME280;59862;47.732;7.346;2022-07-09T00:02:27;99098.58;;;16.76;54.32
71996;BME280;59862;47.732;7.346;2022-07-09T00:04:54;99103.02;;;16.71;54.55
71996;BME280;59862;47.732;7.346;2022-07-09T00:07:22;99095.86;;;16.70;54.29
71996;BME280;59862;47.732;7.346;2022-07-09T00:09:49;99098.33;;;16.66;54.55
71996;BME280;59862;47.732;7.346;2022-07-09T00:12:18;99095.58;;;16.60;54.72
71996;BME280;59862;47.732;7.346;2022-07-09T00:14:45;99095.63;;;16.54;54.88
71996;BME280;59862;47.732;7.346;2022-07-09T00:17:13;99094.23;;;16.54;55.10
71996;BME280;59862;47.732;7.346;2022-07-09T00:19:40;99090.34;;;16.48;55.44
71996;BME280;59862;47.732;7.346;2022-07-09T00:22:08;99087.97;;;16.41;56.03
71996;BME280;59862;47.732;7.346;2022-07-09T00:24:35;99089.50;;;16.38;55.96
71996;BME280;59862;47.732;7.346;2022-07-09T00:27:03;99084.66;;;16.35;56.16
71996;BME280;59862;47.732;7.346;2022-07-09T00:29:30;99081.66;;;16.34;56.19
71996;BME280;59862;47.732;7.346;2022-07-09T00:31:58;99071.56;;;16.20;56.89
71996;BME280;59862;47.732;7.346;2022-07-09T00:34:25;99070.66;;;16.16;56.69
71996;BME280;59862;47.732;7.346;2022-07-09T00:36:52;99071.73;;;16.11;57.06
71996;BME280;59862;47.732;7.346;2022-07-09T00:39:20;99071.10;;;16.02;57.37
71996;BME280;59862;47.732;7.346;2022-07-09T00:41:47;99063.49;;;15.99;57.34
71996;BME280;59862;47.732;7.346;2022-07-09T00:44:15;99068.69;;;16.01;57.33
71996;BME280;59862;47.732;7.346;2022-07-09T00:46:42;99069.05;;;15.99;57.22
71996;BME280;59862;47.732;7.346;2022-07-09T00:49:09;99063.05;;;15.97;57.16
71996;BME280;59862;47.732;7.346;2022-07-09T00:51:37;99060.89;;;15.91;57.25
71996;BME280;59862;47.732;7.346;2022-07-09T00:54:05;99061.95;;;15.86;57.38
71996;BME280;59862;47.732;7.346;2022-07-09T00:56:33;99064.28;;;15.84;57.53
71996;BME280;59862;47.732;7.346;2022-07-09T00:59:02;99066.25;;;15.83;57.47
71996;BME280;59862;47.732;7.346;2022-07-09T01:01:32;99061.77;;;15.79;57.82
71996;BME280;59862;47.732;7.346;2022-07-09T01:04:01;99061.41;;;15.80;57.66
71996;BME280;59862;47.732;7.346;2022-07-09T01:06:28;99061.41;;;15.80;57.80
71996;BME280;59862;47.732;7.346;2022-07-09T01:08:56;99060.02;;;15.80;57.71
71996;BME280;59862;47.732;7.346;2022-07-09T01:11:24;99061.90;;;15.76;58.11
71996;BME280;59862;47.732;7.346;2022-07-09T01:13:52;99060.31;;;15.69;58.06
71996;BME280;59862;47.732;7.346;2022-07-09T01:16:20;99053.88;;;15.65;58.19
71996;BME280;59862;47.732;7.346;2022-07-09T01:18:47;99061.16;;;15.64;58.40
71996;BME280;59862;47.732;7.346;2022-07-09T01:21:15;99062.19;;;15.65;58.31
71996;BME280;59862;47.732;7.346;2022-07-09T01:23:43;99064.38;;;15.66;58.35
71996;BME280;59862;47.732;7.346;2022-07-09T01:26:10;99062.73;;;15.71;58.73
71996;BME280;59862;47.732;7.346;2022-07-09T01:28:38;99067.96;;;15.66;58.28
71996;BME280;59862;47.732;7.346;2022-07-09T01:31:05;99064.96;;;15.59;58.32
71996;BME280;59862;47.732;7.346;2022-07-09T01:33:33;99062.19;;;15.53;58.99
71996;BME280;59862;47.732;7.346;2022-07-09T01:36:01;99054.35;;;15.49;58.70
71996;BME280;59862;47.732;7.346;2022-07-09T01:38:28;99058.51;;;15.49;58.88
71996;BME280;59862;47.732;7.346;2022-07-09T01:40:55;99048.00;;;15.48;58.63
71996;BME280;59862;47.732;7.346;2022-07-09T01:43:24;99044.91;;;15.44;58.52
71996;BME280;59862;47.732;7.346;2022-07-09T01:45:51;99043.77;;;15.39;58.55
71996;BME280;59862;47.732;7.346;2022-07-09T01:48:19;99048.03;;;15.42;58.47
71996;BME280;59862;47.732;7.346;2022-07-09T01:50:46;99043.87;;;15.42;58.58
71996;BME280;59862;47.732;7.346;2022-07-09T01:53:14;99041.55;;;15.44;58.15
71996;BME280;59862;47.732;7.346;2022-07-09T01:55:41;99034.39;;;15.43;58.34
71996;BME280;59862;47.732;7.346;2022-07-09T01:58:08;99035.55;;;15.42;58.17
71996;BME280;59862;47.732;7.346;2022-07-09T02:00:36;99035.20;;;15.44;57.84
71996;BME280;59862;47.732;7.346;2022-07-09T02:03:03;99036.45;;;15.46;57.67
71996;BME280;59862;47.732;7.346;2022-07-09T02:05:31;99030.20;;;15.49;57.51
71996;BME280;59862;47.732;7.346;2022-07-09T02:07:58;99031.91;;;15.54;57.69
71996;BME280;59862;47.732;7.346;2022-07-09T02:10:25;99037.01;;;15.52;57.18
71996;BME280;59862;47.732;7.346;2022-07-09T02:12:53;99029.81;;;15.57;57.06
71996;BME280;59862;47.732;7.346;2022-07-09T02:15:20;99035.37;;;15.57;57.24
71996;BME280;59862;47.732;7.346;2022-07-09T02:17:48;99028.20;;;15.56;57.09
71996;BME280;59862;47.732;7.346;2022-07-09T02:20:15;99030.66;;;15.58;57.17
71996;BME280;59862;47.732;7.346;2022-07-09T02:22:43;99024.05;;;15.56;57.07
71996;BME280;59862;47.732;7.346;2022-07-09T02:25:10;99025.70;;;15.51;57.75
71996;BME280;59862;47.732;7.346;2022-07-09T02:27:37;99026.75;;;15.46;58.21
71996;BME280;59862;47.732;7.346;2022-07-09T02:30:06;99025.50;;;15.44;57.81
71996;BME280;59862;47.732;7.346;2022-07-09T02:32:33;99020.31;;;15.42;57.73
71996;BME280;59862;47.732;7.346;2022-07-09T02:35:03;99026.44;;;15.42;57.72
71996;BME280;59862;47.732;7.346;2022-07-09T02:37:30;99027.02;;;15.41;57.56
71996;BME280;59862;47.732;7.346;2022-07-09T02:39:58;99025.14;;;15.45;57.37
71996;BME280;59862;47.732;7.346;2022-07-09T02:42:26;99026.41;;;15.48;56.98
71996;BME280;59862;47.732;7.346;2022-07-09T02:44:53;99022.70;;;15.50;57.04
71996;BME280;59862;47.732;7.346;2022-07-09T02:47:20;99029.95;;;15.54;57.14
71996;BME280;59862;47.732;7.346;2022-07-09T02:49:48;99022.66;;;15.56;56.91
71996;BME280;59862;47.732;7.346;2022-07-09T02:52:15;99024.05;;;15.56;57.14
71996;BME280;59862;47.732;7.346;2022-07-09T02:54:43;99027.98;;;15.55;57.28
71996;BME280;59862;47.732;7.346;2022-07-09T02:57:11;99025.47;;;15.50;57.45
71996;BME280;59862;47.732;7.346;2022-07-09T02:59:39;99025.70;;;15.51;57.29
71996;BME280;59862;47.732;7.346;2022-07-09T03:02:06;99025.14;;;15.45;57.83
71996;BME280;59862;47.732;7.346;2022-07-09T03:04:34;99025.95;;;15.46;57.63
71996;BME280;59862;47.732;7.346;2022-07-09T03:07:01;99023.44;;;15.41;58.43
71996;BME280;59862;47.732;7.346;2022-07-09T03:09:29;99026.11;;;15.37;58.56
71996;BME280;59862;47.732;7.346;2022-07-09T03:11:56;99020.21;;;15.39;58.34
71996;BME280;59862;47.732;7.346;2022-07-09T03:14:24;99028.08;;;15.37;58.32
71996;BME280;59862;47.732;7.346;2022-07-09T03:16:51;99033.41;;;15.30;58.56
71996;BME280;59862;47.732;7.346;2022-07-09T03:19:19;99028.93;;;15.25;58.62
71996;BME280;59862;47.732;7.346;2022-07-09T03:21:46;99028.33;;;15.32;58.64
71996;BME280;59862;47.732;7.346;2022-07-09T03:24:14;99037.80;;;15.31;58.43
71996;BME280;59862;47.732;7.346;2022-07-09T03:26:42;99035.83;;;15.31;58.83
71996;BME280;59862;47.732;7.346;2022-07-09T03:29:09;99036.87;;;15.33;59.01
71996;BME280;59862;47.732;7.346;2022-07-09T03:31:36;99028.78;;;15.34;58.69
71996;BME280;59862;47.732;7.346;2022-07-09T03:34:04;99030.75;;;15.33;58.62
71996;BME280;59862;47.732;7.346;2022-07-09T03:36:32;99032.58;;;15.35;58.42
71996;BME280;59862;47.732;7.346;2022-07-09T03:39:00;99032.91;;;15.40;58.71
71996;BME280;59862;47.732;7.346;2022-07-09T03:41:28;99035.10;;;15.40;58.78
71996;BME280;59862;47.732;7.346;2022-07-09T03:43:56;99039.26;;;15.40;58.56
71996;BME280;59862;47.732;7.346;2022-07-09T03:46:24;99039.16;;;15.37;58.57
71996;BME280;59862;47.732;7.346;2022-07-09T03:48:52;99042.28;;;15.35;58.67
71996;BME280;59862;47.732;7.346;2022-07-09T03:51:19;99042.98;;;15.32;58.66
71996;BME280;59862;47.732;7.346;2022-07-09T03:53:47;99041.50;;;15.29;58.96
71996;BME280;59862;47.732;7.346;2022-07-09T03:56:14;99035.95;;;15.29;58.98
71996;BME280;59862;47.732;7.346;2022-07-09T03:58:41;99040.12;;;15.29;59.15
71996;BME280;59862;47.732;7.346;2022-07-09T04:01:09;99039.89;;;15.28;59.03
71996;BME280;59862;47.732;7.346;2022-07-09T04:03:37;99040.02;;;15.25;59.24
71996;BME280;59862;47.732;7.346;2022-07-09T04:06:05;99034.29;;;15.12;59.58
71996;BME280;59862;47.732;7.346;2022-07-09T04:08:32;99040.39;;;15.17;59.81
71996;BME280;59862;47.732;7.346;2022-07-09T04:11:00;99044.42;;;15.20;59.45
71996;BME280;59862;47.732;7.346;2022-07-09T04:13:28;99050.88;;;15.24;59.47
71996;BME280;59862;47.732;7.346;2022-07-09T04:15:55;99052.36;;;15.28;59.46
71996;BME280;59862;47.732;7.346;2022-07-09T04:18:23;99048.08;;;15.30;59.28
71996;BME280;59862;47.732;7.346;2022-07-09T04:20:50;99056.63;;;15.31;59.68
71996;BME280;59862;47.732;7.346;2022-07-09T04:23:17;99051.17;;;15.35;59.70
71996;BME280;59862;47.732;7.346;2022-07-09T04:25:45;99056.59;;;15.37;59.55
71996;BME280;59862;47.732;7.346;2022-07-09T04:28:14;99056.89;;;15.48;59.76
71996;BME280;59862;47.732;7.346;2022-07-09T04:30:42;99060.00;;;15.52;58.83
71996;BME280;59862;47.732;7.346;2022-07-09T04:33:09;99054.09;;;15.60;58.67
71996;BME280;59862;47.732;7.346;2022-07-09T04:35:37;99055.80;;;15.71;58.64
71996;BME280;59862;47.732;7.346;2022-07-09T04:38:05;99056.25;;;15.73;58.71
71996;BME280;59862;47.732;7.346;2022-07-09T04:40:32;99059.35;;;15.77;58.92
71996;BME280;59862;47.732;7.346;2022-07-09T04:43:00;99054.70;;;15.81;59.09
71996;BME280;59862;47.732;7.346;2022-07-09T04:45:27;99057.22;;;15.87;58.46
71996;BME280;59862;47.732;7.346;2022-07-09T04:48:02;99055.92;;;15.90;58.55
71996;BME280;59862;47.732;7.346;2022-07-09T04:50:26;99053.83;;;15.93;58.40
71996;BME280;59862;47.732;7.346;2022-07-09T04:52:54;99059.23;;;15.96;57.86
71996;BME280;59862;47.732;7.346;2022-07-09T04:55:22;99054.77;;;16.07;57.88
71996;BME280;59862;47.732;7.346;2022-07-09T04:57:50;99054.86;;;16.10;58.03
71996;BME280;59862;47.732;7.346;2022-07-09T05:00:17;99059.47;;;16.12;57.81
71996;BME280;59862;47.732;7.346;2022-07-09T05:02:45;99056.30;;;16.20;57.61
71996;BME280;59862;47.732;7.346;2022-07-09T05:05:13;99057.41;;;16.25;56.99
71996;BME280;59862;47.732;7.346;2022-07-09T05:07:41;99062.81;;;16.34;57.22
71996;BME280;59862;47.732;7.346;2022-07-09T05:10:09;99060.57;;;16.39;57.04
71996;BME280;59862;47.732;7.346;2022-07-09T05:12:37;99058.69;;;16.43;56.85
71996;BME280;59862;47.732;7.346;2022-07-09T05:15:06;99055.19;;;16.46;56.91
71996;BME280;59862;47.732;7.346;2022-07-09T05:17:35;99053.97;;;16.54;57.29
71996;BME280;59862;47.732;7.346;2022-07-09T05:20:04;99058.66;;;16.59;57.24
71996;BME280;59862;47.732;7.346;2022-07-09T05:22:33;99066.27;;;16.62;57.96
71996;BME280;59862;47.732;7.346;2022-07-09T05:25:01;99063.36;;;16.65;57.57
71996;BME280;59862;47.732;7.346;2022-07-09T05:27:28;99058.58;;;16.71;57.17
71996;BME280;59862;47.732;7.346;2022-07-09T05:29:56;99057.58;;;16.79;57.14
71996;BME280;59862;47.732;7.346;2022-07-09T05:32:25;99057.94;;;16.78;57.42
71996;BME280;59862;47.732;7.346;2022-07-09T05:34:52;99053.49;;;16.83;56.74
71996;BME280;59862;47.732;7.346;2022-07-09T05:37:20;99055.98;;;16.88;56.77
71996;BME280;59862;47.732;7.346;2022-07-09T05:39:47;99058.88;;;16.92;56.86
71996;BME280;59862;47.732;7.346;2022-07-09T05:42:14;99055.90;;;17.10;56.88
71996;BME280;59862;47.732;7.346;2022-07-09T05:44:42;99062.71;;;17.22;56.65
71996;BME280;59862;47.732;7.346;2022-07-09T05:47:09;99064.83;;;17.19;56.45
71996;BME280;59862;47.732;7.346;2022-07-09T05:49:37;99061.10;;;17.31;56.21
71996;BME280;59862;47.732;7.346;2022-07-09T05:52:05;99066.88;;;17.32;55.72
71996;BME280;59862;47.732;7.346;2022-07-09T05:54:32;99061.77;;;17.34;55.80
71996;BME280;59862;47.732;7.346;2022-07-09T05:57:00;99068.20;;;17.38;55.49
71996;BME280;59862;47.732;7.346;2022-07-09T05:59:28;99061.17;;;17.44;55.37
71996;BME280;59862;47.732;7.346;2022-07-09T06:01:55;99062.94;;;17.42;55.42
71996;BME280;59862;47.732;7.346;2022-07-09T06:04:23;99061.41;;;17.64;55.43
71996;BME280;59862;47.732;7.346;2022-07-09T06:06:50;99063.54;;;17.81;54.97
71996;BME280;59862;47.732;7.346;2022-07-09T06:09:17;99061.19;;;17.83;54.25
71996;BME280;59862;47.732;7.346;2022-07-09T06:11:45;99058.33;;;17.89;54.29
71996;BME280;59862;47.732;7.346;2022-07-09T06:14:12;99061.58;;;18.04;54.21
71996;BME280;59862;47.732;7.346;2022-07-09T06:16:40;99060.88;;;18.20;53.92
71996;BME280;59862;47.732;7.346;2022-07-09T06:19:07;99056.84;;;18.27;53.89
71996;BME280;59862;47.732;7.346;2022-07-09T06:21:34;99058.95;;;18.34;53.37
71996;BME280;59862;47.732;7.346;2022-07-09T06:24:02;99058.38;;;18.48;52.78
71996;BME280;59862;47.732;7.346;2022-07-09T06:26:29;99062.98;;;18.50;51.36
71996;BME280;59862;47.732;7.346;2022-07-09T06:28:57;99067.48;;;18.45;51.29
71996;BME280;59862;47.732;7.346;2022-07-09T06:31:25;99061.91;;;18.58;51.01
71996;BME280;59862;47.732;7.346;2022-07-09T06:33:53;99060.88;;;18.66;51.09
71996;BME280;59862;47.732;7.346;2022-07-09T06:36:20;99053.80;;;18.72;50.44
71996;BME280;59862;47.732;7.346;2022-07-09T06:38:48;99055.63;;;18.74;50.11
71996;BME280;59862;47.732;7.346;2022-07-09T06:41:33;99055.78;;;18.85;50.47
71996;BME280;59862;47.732;7.346;2022-07-09T06:44:01;99064.31;;;18.69;49.62
71996;BME280;59862;47.732;7.346;2022-07-09T06:46:29;99059.53;;;18.83;48.68
71996;BME280;59862;47.732;7.346;2022-07-09T06:48:56;99059.23;;;19.01;47.93
71996;BME280;59862;47.732;7.346;2022-07-09T06:51:24;99056.06;;;19.03;48.28
71996;BME280;59862;47.732;7.346;2022-07-09T06:53:51;99059.11;;;18.81;49.35
71996;BME280;59862;47.732;7.346;2022-07-09T06:56:18;99060.69;;;18.91;50.05
71996;BME280;59862;47.732;7.346;2022-07-09T06:58:46;99054.72;;;19.06;49.84
71996;BME280;59862;47.732;7.346;2022-07-09T07:01:13;99056.70;;;19.06;49.39
71996;BME280;59862;47.732;7.346;2022-07-09T07:03:41;99061.36;;;19.11;49.37
71996;BME280;59862;47.732;7.346;2022-07-09T07:06:08;99059.26;;;19.18;48.58
71996;BME280;59862;47.732;7.346;2022-07-09T07:08:35;99057.91;;;19.21;46.86
71996;BME280;59862;47.732;7.346;2022-07-09T07:11:03;99046.68;;;19.31;46.57
71996;BME280;59862;47.732;7.346;2022-07-09T07:13:31;99054.48;;;19.61;46.47
71996;BME280;59862;47.732;7.346;2022-07-09T07:15:58;99051.84;;;19.76;44.37
71996;BME280;59862;47.732;7.346;2022-07-09T07:18:26;99052.12;;;19.84;45.49
71996;BME280;59862;47.732;7.346;2022-07-09T07:20:53;99046.86;;;19.95;46.15
71996;BME280;59862;47.732;7.346;2022-07-09T07:23:20;99044.33;;;20.20;44.40
71996;BME280;59862;47.732;7.346;2022-07-09T07:25:48;99050.78;;;20.28;44.90
71996;BME280;59862;47.732;7.346;2022-07-09T07:28:15;99041.63;;;20.31;44.69
71996;BME280;59862;47.732;7.346;2022-07-09T07:30:42;99047.66;;;20.37;43.48
71996;BME280;59862;47.732;7.346;2022-07-09T07:33:10;99048.43;;;20.54;43.28
71996;BME280;59862;47.732;7.346;2022-07-09T07:35:37;99052.98;;;20.76;42.96
71996;BME280;59862;47.732;7.346;2022-07-09T07:38:05;99044.86;;;20.57;42.84
71996;BME280;59862;47.732;7.346;2022-07-09T07:40:33;99046.08;;;20.60;42.65
71996;BME280;59862;47.732;7.346;2022-07-09T07:43:01;99043.61;;;20.51;43.16
71996;BME280;59862;47.732;7.346;2022-07-09T07:45:28;99050.66;;;20.38;43.46
71996;BME280;59862;47.732;7.346;2022-07-09T07:47:56;99048.20;;;20.49;43.13
71996;BME280;59862;47.732;7.346;2022-07-09T07:50:24;99051.99;;;20.78;43.23
71996;BME280;59862;47.732;7.346;2022-07-09T07:52:51;99054.31;;;20.93;43.08
71996;BME280;59862;47.732;7.346;2022-07-09T07:55:19;99049.59;;;21.04;42.90
71996;BME280;59862;47.732;7.346;2022-07-09T07:57:46;99052.40;;;21.08;42.70
71996;BME280;59862;47.732;7.346;2022-07-09T08:00:14;99047.32;;;21.24;42.86
71996;BME280;59862;47.732;7.346;2022-07-09T08:02:41;99047.76;;;21.33;42.87
71996;BME280;59862;47.732;7.346;2022-07-09T08:05:09;99046.63;;;21.10;43.04
71996;BME280;59862;47.732;7.346;2022-07-09T08:07:36;99034.05;;;21.14;43.87
71996;BME280;59862;47.732;7.346;2022-07-09T08:10:05;99040.09;;;21.61;42.91
71996;BME280;59862;47.732;7.346;2022-07-09T08:12:32;99034.13;;;21.70;42.52
71996;BME280;59862;47.732;7.346;2022-07-09T08:15:00;99034.98;;;22.02;42.27
71996;BME280;59862;47.732;7.346;2022-07-09T08:17:27;99036.47;;;22.27;41.76
71996;BME280;59862;47.732;7.346;2022-07-09T08:19:55;99032.47;;;22.32;41.32
71996;BME280;59862;47.732;7.346;2022-07-09T08:22:22;99040.87;;;22.46;41.53
71996;BME280;59862;47.732;7.346;2022-07-09T08:24:49;99032.27;;;22.31;40.94
71996;BME280;59862;47.732;7.346;2022-07-09T08:27:17;99030.04;;;22.66;41.12
71996;BME280;59862;47.732;7.346;2022-07-09T08:29:44;99031.26;;;22.47;41.28
71996;BME280;59862;47.732;7.346;2022-07-09T08:32:13;99028.06;;;22.84;40.69
71996;BME280;59862;47.732;7.346;2022-07-09T08:34:41;99026.63;;;22.98;40.08
71996;BME280;59862;47.732;7.346;2022-07-09T08:37:09;99016.86;;;23.38;40.51
71996;BME280;59862;47.732;7.346;2022-07-09T08:39:37;99022.44;;;23.53;39.38
71996;BME280;59862;47.732;7.346;2022-07-09T08:42:09;99019.34;;;23.73;39.04
71996;BME280;59862;47.732;7.346;2022-07-09T08:44:42;99024.08;;;23.87;38.59
71996;BME280;59862;47.732;7.346;2022-07-09T08:47:11;99025.08;;;23.88;37.76
71996;BME280;59862;47.732;7.346;2022-07-09T08:49:39;99019.44;;;23.52;37.71
71996;BME280;59862;47.732;7.346;2022-07-09T08:52:08;99022.08;;;23.36;38.51
71996;BME280;59862;47.732;7.346;2022-07-09T08:54:37;99020.04;;;23.91;38.97
71996;BME280;59862;47.732;7.346;2022-07-09T08:57:06;99022.35;;;23.74;37.99
71996;BME280;59862;47.732;7.346;2022-07-09T08:59:33;99024.98;;;24.02;36.89
71996;BME280;59862;47.732;7.346;2022-07-09T09:02:06;99015.73;;;23.73;36.62
71996;BME280;59862;47.732;7.346;2022-07-09T09:04:36;99015.97;;;23.99;37.71
71996;BME280;59862;47.732;7.346;2022-07-09T09:07:18;99009.17;;;24.30;37.19
71996;BME280;59862;47.732;7.346;2022-07-09T09:09:48;99007.73;;;24.56;36.96
71996;BME280;59862;47.732;7.346;2022-07-09T09:12:25;99007.52;;;24.81;36.00
71996;BME280;59862;47.732;7.346;2022-07-09T09:14:50;99000.42;;;25.07;34.92
71996;BME280;59862;47.732;7.346;2022-07-09T09:17:18;98998.37;;;25.45;34.77
71996;BME280;59862;47.732;7.346;2022-07-09T09:19:46;99006.78;;;25.29;34.78
71996;BME280;59862;47.732;7.346;2022-07-09T09:22:17;99009.64;;;25.45;33.35
71996;BME280;59862;47.732;7.346;2022-07-09T09:24:49;99006.11;;;25.37;34.06
71996;BME280;59862;47.732;7.346;2022-07-09T09:27:29;99000.96;;;25.28;33.47
71996;BME280;59862;47.732;7.346;2022-07-09T09:29:58;99000.96;;;25.28;35.25
71996;BME280;59862;47.732;7.346;2022-07-09T09:32:27;99000.43;;;25.86;33.56
71996;BME280;59862;47.732;7.346;2022-07-09T09:34:54;98997.05;;;25.83;33.19
71996;BME280;59862;47.732;7.346;2022-07-09T09:37:28;98994.19;;;26.14;33.21
71996;BME280;59862;47.732;7.346;2022-07-09T09:39:56;98995.53;;;26.44;31.91
71996;BME280;59862;47.732;7.346;2022-07-09T09:42:24;98992.40;;;26.39;32.18
71996;BME280;59862;47.732;7.346;2022-07-09T09:44:52;98988.28;;;26.78;32.52
71996;BME280;59862;47.732;7.346;2022-07-09T09:47:21;98990.50;;;26.44;31.73
71996;BME280;59862;47.732;7.346;2022-07-09T09:49:51;98989.79;;;26.25;31.71
71996;BME280;59862;47.732;7.346;2022-07-09T09:52:20;98991.11;;;26.43;32.96
71996;BME280;59862;47.732;7.346;2022-07-09T09:54:48;98991.69;;;26.31;31.87
71996;BME280;59862;47.732;7.346;2022-07-09T09:57:17;98991.00;;;26.12;32.77
71996;BME280;59862;47.732;7.346;2022-07-09T09:59:45;98990.84;;;25.65;33.66
71996;BME280;59862;47.732;7.346;2022-07-09T10:02:14;98991.62;;;26.23;33.04
71996;BME280;59862;47.732;7.346;2022-07-09T10:04:43;98994.11;;;26.33;32.16
71996;BME280;59862;47.732;7.346;2022-07-09T10:07:13;98988.33;;;25.74;33.89
71996;BME280;59862;47.732;7.346;2022-07-09T10:09:51;98994.94;;;26.30;32.54
71996;BME280;59862;47.732;7.346;2022-07-09T10:12:10;98985.45;;;27.41;30.88
71996;BME280;59862;47.732;7.346;2022-07-09T10:14:38;98982.92;;;28.44;29.20
71996;BME280;59862;47.732;7.346;2022-07-09T10:17:16;98975.30;;;29.39;26.88
71996;BME280;59862;47.732;7.346;2022-07-09T10:19:57;98979.89;;;29.41;28.13
71996;BME280;59862;47.732;7.346;2022-07-09T10:22:36;98977.36;;;29.85;27.31
71996;BME280;59862;47.732;7.346;2022-07-09T10:25:05;98971.91;;;31.06;26.34
71996;BME280;59862;47.732;7.346;2022-07-09T10:27:46;98967.77;;;32.30;24.22
71996;BME280;59862;47.732;7.346;2022-07-09T10:30:30;98969.22;;;32.39;22.63
71996;BME280;59862;47.732;7.346;2022-07-09T10:33:08;98961.88;;;32.92;22.77
71996;BME280;59862;47.732;7.346;2022-07-09T10:35:45;98965.16;;;32.58;23.80
71996;BME280;59862;47.732;7.346;2022-07-09T10:38:13;98967.30;;;30.82;25.42
71996;BME280;59862;47.732;7.346;2022-07-09T10:40:46;98966.44;;;29.45;26.66
71996;BME280;59862;47.732;7.346;2022-07-09T10:43:15;98958.98;;;31.22;25.29
71996;BME280;59862;47.732;7.346;2022-07-09T10:45:46;98957.89;;;29.53;25.86
71996;BME280;59862;47.732;7.346;2022-07-09T10:48:14;98950.83;;;30.29;26.14
71996;BME280;59862;47.732;7.346;2022-07-09T10:50:43;98947.88;;;31.19;26.26
71996;BME280;59862;47.732;7.346;2022-07-09T10:53:14;98946.41;;;31.59;26.07
71996;BME280;59862;47.732;7.346;2022-07-09T10:55:44;98937.45;;;31.38;25.69
71996;BME280;59862;47.732;7.346;2022-07-09T10:58:24;98950.17;;;32.81;23.81
71996;BME280;59862;47.732;7.346;2022-07-09T11:00:58;98949.34;;;33.49;23.15
71996;BME280;59862;47.732;7.346;2022-07-09T11:03:28;98943.36;;;33.93;21.81
71996;BME280;59862;47.732;7.346;2022-07-09T11:05:58;98939.32;;;32.39;23.67
71996;BME280;59862;47.732;7.346;2022-07-09T11:08:25;98929.67;;;31.87;25.25
71996;BME280;59862;47.732;7.346;2022-07-09T11:10:53;98930.41;;;31.52;26.01
71996;BME280;59862;47.732;7.346;2022-07-09T11:13:23;98927.78;;;32.47;24.55
71996;BME280;59862;47.732;7.346;2022-07-09T11:15:59;98922.44;;;32.76;24.35
71996;BME280;59862;47.732;7.346;2022-07-09T11:18:28;98925.80;;;33.72;23.24
71996;BME280;59862;47.732;7.346;2022-07-09T11:20:55;98915.02;;;34.47;21.85
71996;BME280;59862;47.732;7.346;2022-07-09T11:23:23;98912.88;;;34.76;22.42
71996;BME280;59862;47.732;7.346;2022-07-09T11:25:50;98913.33;;;35.17;21.01
71996;BME280;59862;47.732;7.346;2022-07-09T11:28:25;98913.38;;;35.72;20.51
71996;BME280;59862;47.732;7.346;2022-07-09T11:31:02;98912.13;;;36.33;19.92
71996;BME280;59862;47.732;7.346;2022-07-09T11:33:31;98912.73;;;37.75;18.83
71996;BME280;59862;47.732;7.346;2022-07-09T11:36:20;98905.59;;;35.87;19.96
71996;BME280;59862;47.732;7.346;2022-07-09T11:38:53;98912.23;;;36.59;18.81
71996;BME280;59862;47.732;7.346;2022-07-09T11:41:22;98907.77;;;35.18;20.68
71996;BME280;59862;47.732;7.346;2022-07-09T11:43:50;98904.66;;;35.85;20.19
71996;BME280;59862;47.732;7.346;2022-07-09T11:46:19;98897.07;;;35.53;20.13
71996;BME280;59862;47.732;7.346;2022-07-09T11:48:54;98890.86;;;36.29;20.25
71996;BME280;59862;47.732;7.346;2022-07-09T11:51:31;98898.28;;;37.12;19.22
71996;BME280;59862;47.732;7.346;2022-07-09T11:54:00;98887.42;;;35.36;20.10
71996;BME280;59862;47.732;7.346;2022-07-09T11:56:39;98895.22;;;35.35;20.20
71996;BME280;59862;47.732;7.346;2022-07-09T11:59:07;98890.78;;;35.88;20.72
71996;BME280;59862;47.732;7.346;2022-07-09T12:01:36;98890.02;;;35.98;20.34
71996;BME280;59862;47.732;7.346;2022-07-09T12:04:05;98891.78;;;35.85;19.89
71996;BME280;59862;47.732;7.346;2022-07-09T12:06:32;98890.57;;;35.04;21.14
71996;BME280;59862;47.732;7.346;2022-07-09T12:09:04;98885.97;;;34.87;20.82
71996;BME280;59862;47.732;7.346;2022-07-09T12:11:31;98891.27;;;35.72;20.26
71996;BME280;59862;47.732;7.346;2022-07-09T12:13:59;98883.09;;;36.25;19.57
71996;BME280;59862;47.732;7.346;2022-07-09T12:16:26;98890.83;;;37.78;18.40
71996;BME280;59862;47.732;7.346;2022-07-09T12:18:53;98892.71;;;36.93;19.61
71996;BME280;59862;47.732;7.346;2022-07-09T12:21:22;98885.74;;;37.00;18.89
71996;BME280;59862;47.732;7.346;2022-07-09T12:23:50;98878.00;;;35.79;20.25
71996;BME280;59862;47.732;7.346;2022-07-09T12:26:17;98882.20;;;35.88;20.52
71996;BME280;59862;47.732;7.346;2022-07-09T12:28:45;98872.86;;;36.90;19.91
71996;BME280;59862;47.732;7.346;2022-07-09T12:31:13;98871.92;;;38.03;18.98
71996;BME280;59862;47.732;7.346;2022-07-09T12:33:40;98861.47;;;37.68;19.33
71996;BME280;59862;47.732;7.346;2022-07-09T12:36:08;98866.53;;;37.32;19.48
71996;BME280;59862;47.732;7.346;2022-07-09T12:38:35;98861.46;;;38.00;19.17
71996;BME280;59862;47.732;7.346;2022-07-09T12:41:03;98849.95;;;38.75;18.26
71996;BME280;59862;47.732;7.346;2022-07-09T12:43:30;98843.63;;;39.04;17.78
71996;BME280;59862;47.732;7.346;2022-07-09T12:45:58;98851.11;;;39.84;17.69
71996;BME280;59862;47.732;7.346;2022-07-09T12:48:26;98845.53;;;40.19;16.86
71996;BME280;59862;47.732;7.346;2022-07-09T12:50:53;98848.45;;;40.54;16.34
71996;BME280;59862;47.732;7.346;2022-07-09T12:53:21;98843.42;;;40.37;16.40
71996;BME280;59862;47.732;7.346;2022-07-09T12:55:48;98831.67;;;41.23;16.21
71996;BME280;59862;47.732;7.346;2022-07-09T12:58:15;98837.09;;;41.79;15.47
71996;BME280;59862;47.732;7.346;2022-07-09T13:00:43;98832.44;;;42.44;14.94
71996;BME280;59862;47.732;7.346;2022-07-09T13:03:10;98826.08;;;41.90;15.18
71996;BME280;59862;47.732;7.346;2022-07-09T13:05:38;98811.76;;;40.96;15.95
71996;BME280;59862;47.732;7.346;2022-07-09T13:08:05;98818.67;;;41.05;16.25